Time;durP1;ratioP1;P1;durP2;ratioP2;P2;SDS_P1;SDS_P2;PMS_P1;PMS_P2;Temp;Humidity;BMP_temperature;BMP_pressure;BME280_temperature;BME280_humidity;BME280_pressure;Samples;Min_cycle;Max_cycle;Signal;HPM_P1;HPM_P2
2021/08/02 00:01:56;;;;;;;6.20;2.30;;;;;;;;;;4939139;29;20028;-80
2021/08/02 00:04:45;;;;;;;5.85;2.25;;;;;;;;;;4934758;28;20032;-78
2021/08/02 00:07:32;;;;;;;5.38;2.28;;;;;;;;;;4935494;29;20505;-79
2021/08/02 00:10:18;;;;;;;6.35;2.30;;;;;;;;;;4931077;29;20039;-79
2021/08/02 00:13:06;;;;;;;5.35;2.20;;;;;;;;;;4927389;29;20422;-78
2021/08/02 00:15:53;;;;;;;4.07;2.28;;;;;;;;;;4937709;29;20105;-78
2021/08/02 00:18:38;;;;;;;4.85;2.70;;;;;;;;;;4946405;28;20028;-78
2021/08/02 00:21:24;;;;;;;7.25;2.30;;;;;;;;;;4930003;29;20028;-78
2021/08/02 00:24:09;;;;;;;6.40;2.50;;;;;;;;;;4918877;29;20134;-79
2021/08/02 00:26:56;;;;;;;3.42;2.45;;;;;;;;;;4932010;29;20023;-79
2021/08/02 00:29:41;;;;;;;6.47;2.33;;;;;;;;;;4927012;29;20611;-79
2021/08/02 00:32:27;;;;;;;6.05;2.20;;;;;;;;;;4931481;29;20027;-79
2021/08/02 00:35:12;;;;;;;7.45;2.40;;;;;;;;;;4926359;29;20023;-80
2021/08/02 00:38:03;;;;;;;5.25;2.22;;;;;;;;;;4933256;29;20162;-79
2021/08/02 00:40:48;;;;;;;4.70;2.65;;;;;;;;;;4925735;29;20036;-79
2021/08/02 00:43:43;;;;;;;5.25;2.40;;;;;;;;;;4929952;29;20042;-80
2021/08/02 00:46:31;;;;;;;4.95;2.20;;;;;;;;;;4935499;29;20039;-79
2021/08/02 00:49:20;;;;;;;5.97;2.40;;;;;;;;;;4927041;29;20075;-80
2021/08/02 00:52:06;;;;;;;6.32;2.67;;;;;;;;;;4933429;29;20024;-80
2021/08/02 00:54:53;;;;;;;4.95;2.90;;;;;;;;;;4932697;29;20080;-79
2021/08/02 00:57:40;;;;;;;4.57;2.35;;;;;;;;;;4933969;29;20079;-79
2021/08/02 01:00:25;;;;;;;5.43;2.30;;;;;;;;;;4932972;29;20051;-79
2021/08/02 01:03:11;;;;;;;8.40;2.42;;;;;;;;;;4932641;29;20031;-78
2021/08/02 01:05:57;;;;;;;4.35;2.28;;;;;;;;;;4932491;29;20518;-78
2021/08/02 01:08:43;;;;;;;4.15;2.05;;;;;;;;;;4935001;29;20549;-78
2021/08/02 01:11:31;;;;;;;2.42;2.10;;;;;;;;;;4935432;29;20035;-78
2021/08/02 01:14:17;;;;;;;2.17;1.98;;;;;;;;;;4932844;29;20082;-79
2021/08/02 01:17:03;;;;;;;4.25;2.33;;;;;;;;;;4937208;29;20152;-78
2021/08/02 01:19:49;;;;;;;5.03;2.55;;;;;;;;;;4932471;29;20118;-78
2021/08/02 01:22:35;;;;;;;6.60;2.47;;;;;;;;;;4933549;29;20039;-79
2021/08/02 01:25:52;;;;;;;5.40;2.67;;;;;;;;;;4932826;29;20087;-78
2021/08/02 01:28:58;;;;;;;4.68;2.30;;;;;;;;;;4937470;29;20028;-79
2021/08/02 01:31:43;;;;;;;5.20;2.13;;;;;;;;;;4904254;29;20079;-78
2021/08/02 01:34:28;;;;;;;4.32;2.22;;;;;;;;;;4943961;29;20038;-78
2021/08/02 01:37:14;;;;;;;4.28;2.35;;;;;;;;;;4921730;29;20115;-78
2021/08/02 01:39:59;;;;;;;2.47;2.13;;;;;;;;;;4930676;29;20028;-79
2021/08/02 01:42:44;;;;;;;4.65;2.65;;;;;;;;;;4925703;29;20035;-79
2021/08/02 01:45:39;;;;;;;9.93;3.30;;;;;;;;;;4940567;29;20102;-78
2021/08/02 01:48:33;;;;;;;7.80;2.50;;;;;;;;;;4929534;29;20430;-79
2021/08/02 01:51:28;;;;;;;5.95;2.15;;;;;;;;;;4937777;29;20038;-79
2021/08/02 01:54:23;;;;;;;6.95;2.78;;;;;;;;;;4934194;29;20031;-79
2021/08/02 01:57:12;;;;;;;5.63;2.25;;;;;;;;;;4945442;29;20383;-79
2021/08/02 02:00:05;;;;;;;4.72;2.40;;;;;;;;;;4928814;29;20170;-79
2021/08/02 02:03:11;;;;;;;3.63;2.47;;;;;;;;;;4938934;29;20042;-79
2021/08/02 02:05:59;;;;;;;6.30;2.50;;;;;;;;;;4931502;29;20038;-79
2021/08/02 02:09:04;;;;;;;3.20;2.08;;;;;;;;;;4936716;29;20035;-78
2021/08/02 02:11:50;;;;;;;10.82;2.78;;;;;;;;;;4940007;29;20126;-79
2021/08/02 02:14:37;;;;;;;5.85;2.65;;;;;;;;;;4947271;28;20035;-79
2021/08/02 02:17:23;;;;;;;5.40;2.72;;;;;;;;;;4937252;29;20123;-79
2021/08/02 02:20:09;;;;;;;6.40;2.40;;;;;;;;;;4936640;29;20143;-79
2021/08/02 02:22:54;;;;;;;5.93;2.00;;;;;;;;;;4927059;29;20118;-79
2021/08/02 02:25:41;;;;;;;5.30;2.40;;;;;;;;;;4929126;29;20474;-80
2021/08/02 02:28:27;;;;;;;7.00;2.90;;;;;;;;;;4947951;28;20039;-79
2021/08/02 02:31:12;;;;;;;14.75;3.75;;;;;;;;;;4935716;29;20047;-78
2021/08/02 02:33:59;;;;;;;4.25;2.33;;;;;;;;;;4934388;29;20043;-79
2021/08/02 02:36:44;;;;;;;4.13;3.00;;;;;;;;;;4931550;29;20027;-78
2021/08/02 02:39:30;;;;;;;6.95;2.38;;;;;;;;;;4930187;29;20110;-78
2021/08/02 02:42:15;;;;;;;3.65;2.17;;;;;;;;;;4944018;28;20042;-80
2021/08/02 02:45:02;;;;;;;4.45;2.38;;;;;;;;;;4930184;29;20044;-78
2021/08/02 02:47:48;;;;;;;5.30;2.20;;;;;;;;;;4931315;29;20024;-79
2021/08/02 02:50:33;;;;;;;4.47;2.47;;;;;;;;;;4932146;29;20487;-79
2021/08/02 02:53:19;;;;;;;3.88;2.75;;;;;;;;;;4938425;29;20127;-80
2021/08/02 02:56:08;;;;;;;5.13;2.60;;;;;;;;;;4929459;29;20051;-80
2021/08/02 02:58:54;;;;;;;6.97;2.88;;;;;;;;;;4931354;29;20039;-80
2021/08/02 03:01:40;;;;;;;3.88;2.60;;;;;;;;;;4931159;29;20039;-79
2021/08/02 03:04:29;;;;;;;7.80;2.17;;;;;;;;;;4949496;29;20031;-79
2021/08/02 03:07:15;;;;;;;3.85;2.17;;;;;;;;;;4946102;29;20386;-78
2021/08/02 03:10:01;;;;;;;5.10;2.50;;;;;;;;;;4941788;29;20406;-80
2021/08/02 03:12:47;;;;;;;6.05;2.22;;;;;;;;;;4930200;29;20028;-79
2021/08/02 03:15:32;;;;;;;4.78;2.28;;;;;;;;;;4929810;29;20034;-80
2021/08/02 03:18:18;;;;;;;6.32;2.60;;;;;;;;;;4931903;29;20447;-80
2021/08/02 03:21:04;;;;;;;5.82;2.72;;;;;;;;;;4921534;29;20361;-80
2021/08/02 03:23:55;;;;;;;6.65;2.90;;;;;;;;;;4928758;29;20034;-80
2021/08/02 03:26:40;;;;;;;5.55;2.53;;;;;;;;;;4929644;29;20035;-80
2021/08/02 03:29:47;;;;;;;5.07;2.60;;;;;;;;;;4935681;29;20074;-80
2021/08/02 03:32:33;;;;;;;6.05;2.75;;;;;;;;;;4930205;29;20106;-79
2021/08/02 03:35:18;;;;;;;6.78;2.70;;;;;;;;;;4935729;29;20035;-79
2021/08/02 03:38:05;;;;;;;6.25;2.63;;;;;;;;;;4929496;29;20087;-79
2021/08/02 03:40:51;;;;;;;5.03;2.42;;;;;;;;;;4935651;29;20023;-79
2021/08/02 03:43:36;;;;;;;6.07;2.92;;;;;;;;;;4930411;29;20523;-79
2021/08/02 03:46:23;;;;;;;7.78;2.38;;;;;;;;;;4929422;29;20090;-79
2021/08/02 03:49:08;;;;;;;5.13;2.28;;;;;;;;;;4933485;29;20031;-79
2021/08/02 03:51:58;;;;;;;6.75;2.33;;;;;;;;;;4929320;29;20087;-80
2021/08/02 03:54:43;;;;;;;;;;;;;;;;;;4941793;29;20443;-79
2021/08/02 03:57:29;;;;;;;5.18;2.92;;;;;;;;;;4936758;28;19970;-79
2021/08/02 04:00:14;;;;;;;8.77;2.72;;;;;;;;;;4934290;29;20127;-79
2021/08/02 04:03:00;;;;;;;5.50;2.58;;;;;;;;;;4929571;29;20065;-79
2021/08/02 04:05:45;;;;;;;7.65;2.53;;;;;;;;;;4937043;29;20063;-78
2021/08/02 04:08:30;;;;;;;5.82;2.45;;;;;;;;;;4932173;29;20016;-79
2021/08/02 04:11:15;;;;;;;5.78;2.70;;;;;;;;;;4935935;29;20039;-79
2021/08/02 04:14:01;;;;;;;7.43;3.00;;;;;;;;;;4929346;29;20390;-79
2021/08/02 04:16:46;;;;;;;8.18;2.47;;;;;;;;;;4934521;29;20016;-79
2021/08/02 04:19:31;;;;;;;7.78;2.80;;;;;;;;;;4929436;29;20016;-79
2021/08/02 04:22:16;;;;;;;5.03;2.65;;;;;;;;;;4932557;29;20027;-79
2021/08/02 04:25:05;;;;;;;4.97;2.53;;;;;;;;;;4933479;29;20031;-78
2021/08/02 04:27:51;;;;;;;8.13;4.47;;;;;;;;;;4933278;29;20265;-78
2021/08/02 04:30:36;;;;;;;5.38;2.45;;;;;;;;;;4932744;29;20030;-79
2021/08/02 04:33:22;;;;;;;4.50;3.03;;;;;;;;;;4936474;29;20019;-79
2021/08/02 04:36:07;;;;;;;6.65;2.55;;;;;;;;;;4944152;29;20386;-79
2021/08/02 04:38:52;;;;;;;7.20;2.53;;;;;;;;;;4929307;29;20366;-78
2021/08/02 04:41:37;;;;;;;8.75;3.00;;;;;;;;;;4930086;29;20482;-79
2021/08/02 04:44:23;;;;;;;6.63;2.97;;;;;;;;;;4937095;29;20493;-79
2021/08/02 04:47:08;;;;;;;4.65;2.78;;;;;;;;;;4925507;29;20088;-78
2021/08/02 04:49:53;;;;;;;5.53;3.00;;;;;;;;;;4942474;29;20126;-79
2021/08/02 04:52:39;;;;;;;5.15;2.17;;;;;;;;;;4951701;29;20043;-78
2021/08/02 04:55:24;;;;;;;6.18;2.55;;;;;;;;;;4931944;29;20040;-79
2021/08/02 04:58:09;;;;;;;6.97;2.80;;;;;;;;;;4944266;29;20094;-77
2021/08/02 05:00:54;;;;;;;5.05;2.90;;;;;;;;;;4929350;29;20023;-78
2021/08/02 05:03:40;;;;;;;5.38;2.63;;;;;;;;;;4936155;29;20344;-79
2021/08/02 05:06:25;;;;;;;7.03;2.83;;;;;;;;;;4934471;29;20034;-79
2021/08/02 05:09:10;;;;;;;5.18;2.95;;;;;;;;;;4937838;29;20031;-79
2021/08/02 05:11:56;;;;;;;11.45;3.25;;;;;;;;;;4933782;29;20031;-79
2021/08/02 05:14:41;;;;;;;4.25;2.30;;;;;;;;;;4949238;28;20316;-79
2021/08/02 05:17:26;;;;;;;7.93;3.00;;;;;;;;;;4932592;29;20501;-80
2021/08/02 05:20:12;;;;;;;5.35;2.45;;;;;;;;;;4927709;29;20031;-79
2021/08/02 05:22:57;;;;;;;7.15;2.70;;;;;;;;;;4935523;29;20194;-79
2021/08/02 05:25:42;;;;;;;8.18;3.10;;;;;;;;;;4932009;29;20083;-78
2021/08/02 05:28:27;;;;;;;10.60;3.75;;;;;;;;;;4938824;29;20023;-79
2021/08/02 05:31:13;;;;;;;5.57;2.95;;;;;;;;;;4939695;28;20082;-78
2021/08/02 05:33:58;;;;;;;4.10;2.70;;;;;;;;;;4934716;29;20039;-79
2021/08/02 05:36:43;;;;;;;5.38;2.58;;;;;;;;;;4944341;29;20385;-80
2021/08/02 05:39:28;;;;;;;5.43;2.45;;;;;;;;;;4950163;29;20047;-81
2021/08/02 05:42:14;;;;;;;7.97;3.20;;;;;;;;;;4931382;29;20027;-81
2021/08/02 05:44:59;;;;;;;4.32;2.95;;;;;;;;;;4929356;29;20030;-82
2021/08/02 05:47:44;;;;;;;6.50;3.03;;;;;;;;;;4942790;28;20035;-82
2021/08/02 05:50:29;;;;;;;4.50;2.70;;;;;;;;;;4929897;29;20360;-82
2021/08/02 05:53:15;;;;;;;7.32;3.05;;;;;;;;;;4928162;29;20032;-80
2021/08/02 05:56:00;;;;;;;7.68;3.20;;;;;;;;;;4940940;29;20053;-81
2021/08/02 05:58:45;;;;;;;6.00;2.53;;;;;;;;;;4941810;29;20042;-83
2021/08/02 06:01:30;;;;;;;7.60;2.80;;;;;;;;;;4927361;29;20032;-80
2021/08/02 06:04:15;;;;;;;3.55;2.42;;;;;;;;;;4932098;29;20032;-80
2021/08/02 06:07:01;;;;;;;4.72;2.70;;;;;;;;;;4931275;29;20031;-80
2021/08/02 06:09:47;;;;;;;8.10;2.72;;;;;;;;;;4934681;29;20110;-82
2021/08/02 06:12:32;;;;;;;6.00;2.67;;;;;;;;;;4922572;29;20434;-82
2021/08/02 06:15:17;;;;;;;12.80;8.98;;;;;;;;;;4930839;29;20054;-81
2021/08/02 06:18:03;;;;;;;18.45;12.20;;;;;;;;;;4925101;29;20031;-83
2021/08/02 06:20:48;;;;;;;4.40;2.90;;;;;;;;;;4926578;29;20039;-81
2021/08/02 06:23:33;;;;;;;5.40;2.63;;;;;;;;;;4930517;29;20066;-81
2021/08/02 06:26:19;;;;;;;7.10;2.72;;;;;;;;;;4932841;29;20047;-81
2021/08/02 06:29:04;;;;;;;6.07;2.42;;;;;;;;;;4929255;29;20043;-81
2021/08/02 06:31:49;;;;;;;5.32;2.10;;;;;;;;;;4946488;28;20382;-82
2021/08/02 06:34:34;;;;;;;4.10;2.38;;;;;;;;;;4931711;29;20063;-81
2021/08/02 06:37:22;;;;;;;4.90;2.50;;;;;;;;;;4932072;29;20712;-81
2021/08/02 06:40:08;;;;;;;5.75;2.72;;;;;;;;;;4931266;29;20550;-81
2021/08/02 06:42:53;;;;;;;3.45;2.40;;;;;;;;;;4945989;28;20027;-81
2021/08/02 06:45:39;;;;;;;6.18;2.45;;;;;;;;;;4928346;29;20020;-81
2021/08/02 06:48:25;;;;;;;5.68;2.30;;;;;;;;;;4944733;28;20024;-80
2021/08/02 06:51:11;;;;;;;4.18;2.03;;;;;;;;;;4932649;29;20028;-81
2021/08/02 06:53:57;;;;;;;5.57;2.60;;;;;;;;;;4938668;29;20554;-82
2021/08/02 06:56:42;;;;;;;7.32;2.10;;;;;;;;;;4932096;29;20044;-81
2021/08/02 06:59:27;;;;;;;4.95;1.90;;;;;;;;;;4930822;29;20027;-81
2021/08/02 07:02:13;;;;;;;4.57;1.98;;;;;;;;;;4934098;29;20467;-81
2021/08/02 07:04:58;;;;;;;10.50;2.05;;;;;;;;;;4929201;29;20038;-83
2021/08/02 07:07:43;;;;;;;18.60;13.63;;;;;;;;;;4924067;29;20032;-82
2021/08/02 07:10:28;;;;;;;16.90;13.15;;;;;;;;;;4920758;29;20579;-84
2021/08/02 07:13:16;;;;;;;3.55;2.35;;;;;;;;;;4932534;29;20032;-82
2021/08/02 07:16:02;;;;;;;2.65;1.90;;;;;;;;;;4930727;29;20023;-82
2021/08/02 07:18:48;;;;;;;4.28;2.05;;;;;;;;;;4949133;29;20119;-81
2021/08/02 07:21:33;;;;;;;5.22;1.80;;;;;;;;;;4936277;29;20023;-83
2021/08/02 07:24:18;;;;;;;4.80;2.15;;;;;;;;;;4930224;29;20062;-81
2021/08/02 07:27:03;;;;;;;4.68;2.17;;;;;;;;;;4930474;29;20476;-80
2021/08/02 07:29:49;;;;;;;5.72;2.25;;;;;;;;;;4934354;29;20027;-81
2021/08/02 07:32:34;;;;;;;4.57;2.08;;;;;;;;;;4928082;29;20046;-82
2021/08/02 07:35:19;;;;;;;3.95;2.40;;;;;;;;;;4932676;29;20034;-82
2021/08/02 07:38:04;;;;;;;2.35;1.92;;;;;;;;;;4926442;29;20024;-82
2021/08/02 07:40:50;;;;;;;7.43;2.03;;;;;;;;;;4929925;29;20050;-82
2021/08/02 07:43:35;;;;;;;6.05;1.63;;;;;;;;;;4947571;29;20394;-81
2021/08/02 07:46:20;;;;;;;2.10;1.90;;;;;;;;;;4941355;29;20043;-81
2021/08/02 07:49:05;;;;;;;4.35;2.08;;;;;;;;;;4935251;29;20023;-81
2021/08/02 07:51:50;;;;;;;8.65;6.05;;;;;;;;;;4937774;29;20110;-83
2021/08/02 07:54:36;;;;;;;9.50;7.05;;;;;;;;;;4932620;29;20027;-82
2021/08/02 07:57:21;;;;;;;8.85;2.60;;;;;;;;;;4930280;29;20383;-83
2021/08/02 08:00:07;;;;;;;4.38;1.80;;;;;;;;;;4932195;29;20519;-81
2021/08/02 08:02:55;;;;;;;7.07;2.78;;;;;;;;;;4940992;29;20023;-82
2021/08/02 08:05:40;;;;;;;5.40;1.83;;;;;;;;;;4943244;29;20028;-83
2021/08/02 08:08:26;;;;;;;3.03;1.67;;;;;;;;;;4940376;29;20028;-82
2021/08/02 08:11:11;;;;;;;4.13;1.80;;;;;;;;;;4951044;28;20079;-83
2021/08/02 08:13:56;;;;;;;3.00;1.67;;;;;;;;;;4934814;29;20115;-83
2021/08/02 08:16:42;;;;;;;3.50;1.98;;;;;;;;;;4931450;29;20544;-82
2021/08/02 08:19:27;;;;;;;4.68;1.70;;;;;;;;;;4947027;29;20027;-83
2021/08/02 08:22:12;;;;;;;4.43;1.90;;;;;;;;;;4927193;29;20024;-83
2021/08/02 08:24:57;;;;;;;3.85;1.65;;;;;;;;;;4956184;28;20692;-83
2021/08/02 08:27:42;;;;;;;3.58;1.88;;;;;;;;;;4937474;29;20032;-83
2021/08/02 08:30:28;;;;;;;5.57;1.70;;;;;;;;;;4929641;29;20039;-85
2021/08/02 08:33:14;;;;;;;1.95;1.45;;;;;;;;;;4932408;29;20027;-84
2021/08/02 08:35:59;;;;;;;3.15;1.58;;;;;;;;;;4936829;29;20486;-82
2021/08/02 08:38:44;;;;;;;3.10;1.50;;;;;;;;;;4932601;29;20063;-85
2021/08/02 08:41:30;;;;;;;4.63;1.80;;;;;;;;;;4941706;29;20027;-89
2021/08/02 08:44:15;;;;;;;14.98;11.82;;;;;;;;;;4939917;28;20031;-84
2021/08/02 08:47:01;;;;;;;8.13;3.53;;;;;;;;;;4938298;29;20051;-83
2021/08/02 08:49:46;;;;;;;3.78;1.65;;;;;;;;;;4933539;29;20125;-83
2021/08/02 08:52:34;;;;;;;4.57;2.05;;;;;;;;;;4931332;29;20638;-83
2021/08/02 08:55:19;;;;;;;3.53;2.30;;;;;;;;;;4941889;29;20449;-87
2021/08/02 08:58:05;;;;;;;3.20;1.80;;;;;;;;;;4939398;29;20498;-85
2021/08/02 09:00:58;;;;;;;4.53;1.83;;;;;;;;;;4930031;29;20031;-82
2021/08/02 09:03:50;;;;;;;3.75;1.88;;;;;;;;;;4932680;29;20031;-82
2021/08/02 09:06:48;;;;;;;3.58;1.65;;;;;;;;;;4935941;29;20028;-83
2021/08/02 09:09:35;;;;;;;3.97;2.00;;;;;;;;;;4932013;29;20107;-82
2021/08/02 09:12:22;;;;;;;4.15;1.90;;;;;;;;;;4933252;29;20076;-81
2021/08/02 09:15:08;;;;;;;3.50;1.83;;;;;;;;;;4931219;29;20545;-81
2021/08/02 09:17:53;;;;;;;5.20;1.63;;;;;;;;;;4938696;29;20028;-81
2021/08/02 09:20:38;;;;;;;9.35;4.65;;;;;;;;;;4930937;29;20512;-81
2021/08/02 09:23:24;;;;;;;6.45;2.78;;;;;;;;;;4928660;29;20114;-82
2021/08/02 09:26:09;;;;;;;3.45;1.70;;;;;;;;;;4942337;28;20024;-82
2021/08/02 09:28:54;;;;;;;3.80;1.65;;;;;;;;;;4939534;29;20326;-81
2021/08/02 09:31:45;;;;;;;1.83;1.33;;;;;;;;;;4942354;29;20038;-82
2021/08/02 09:34:30;;;;;;;3.05;1.55;;;;;;;;;;4938417;29;20031;-82
2021/08/02 09:37:19;;;;;;;2.13;1.80;;;;;;;;;;4939475;29;20051;-81
2021/08/02 09:40:05;;;;;;;2.10;1.65;;;;;;;;;;4929044;29;20054;-82
2021/08/02 09:42:54;;;;;;;6.22;1.75;;;;;;;;;;4938612;29;20067;-81
2021/08/02 09:45:41;;;;;;;2.70;1.60;;;;;;;;;;4933118;29;20019;-81
2021/08/02 09:48:36;;;;;;;2.67;1.50;;;;;;;;;;4927705;29;20038;-80
2021/08/02 09:51:22;;;;;;;2.17;1.50;;;;;;;;;;4927900;29;20031;-80
2021/08/02 09:54:07;;;;;;;2.03;1.60;;;;;;;;;;4937279;29;20034;-80
2021/08/02 09:56:53;;;;;;;2.67;1.83;;;;;;;;;;4940764;29;20482;-80
2021/08/02 09:59:40;;;;;;;2.53;1.40;;;;;;;;;;4934290;29;20028;-83
2021/08/02 10:02:26;;;;;;;3.05;2.10;;;;;;;;;;4931306;29;20051;-84
2021/08/02 10:05:13;;;;;;;2.47;1.48;;;;;;;;;;4949578;28;20024;-83
2021/08/02 10:07:58;;;;;;;3.78;1.50;;;;;;;;;;4930397;29;20106;-83
2021/08/02 10:10:44;;;;;;;6.55;2.10;;;;;;;;;;4933904;29;20031;-83
2021/08/02 10:13:31;;;;;;;4.35;2.00;;;;;;;;;;4931686;29;20031;-82
2021/08/02 10:16:16;;;;;;;6.03;2.28;;;;;;;;;;4935334;29;20106;-82
2021/08/02 10:19:03;;;;;;;8.15;2.47;;;;;;;;;;4931545;29;20051;-82
2021/08/02 10:21:48;;;;;;;5.78;1.90;;;;;;;;;;4925537;29;20035;-84
2021/08/02 10:24:44;;;;;;;6.45;1.90;;;;;;;;;;4927455;29;21357;-82
2021/08/02 10:27:30;;;;;;;4.70;2.60;;;;;;;;;;4937746;29;20402;-82
2021/08/02 10:30:22;;;;;;;5.32;2.10;;;;;;;;;;4929422;29;20032;-83
2021/08/02 10:33:08;;;;;;;4.35;2.88;;;;;;;;;;4928418;29;20070;-82
2021/08/02 10:35:53;;;;;;;5.97;1.90;;;;;;;;;;4928000;29;20020;-82
2021/08/02 10:38:39;;;;;;;5.32;2.83;;;;;;;;;;4930719;29;20411;-83
2021/08/02 10:41:25;;;;;;;5.20;2.17;;;;;;;;;;4937683;29;20031;-84
2021/08/02 10:44:13;;;;;;;4.07;2.13;;;;;;;;;;4927321;29;20042;-81
2021/08/02 10:47:03;;;;;;;5.53;2.50;;;;;;;;;;4930656;29;20040;-80
2021/08/02 10:49:49;;;;;;;8.02;2.38;;;;;;;;;;4916388;29;20035;-84
2021/08/02 10:52:38;;;;;;;7.93;2.08;;;;;;;;;;4928785;29;20482;-81
2021/08/02 10:55:26;;;;;;;3.08;1.83;;;;;;;;;;4931771;29;20036;-80
2021/08/02 10:58:11;;;;;;;3.80;1.80;;;;;;;;;;4913751;29;20074;-80
2021/08/02 11:01:04;;;;;;;3.40;1.67;;;;;;;;;;4931403;29;20047;-79
2021/08/02 11:03:49;;;;;;;3.88;1.58;;;;;;;;;;4929621;29;20039;-83
2021/08/02 11:06:40;;;;;;;6.30;2.13;;;;;;;;;;4931108;29;20111;-86
2021/08/02 11:09:29;;;;;;;6.28;3.05;;;;;;;;;;4938027;29;20532;-80
2021/08/02 11:12:15;;;;;;;6.78;2.30;;;;;;;;;;4927108;29;20035;-81
2021/08/02 11:15:00;;;;;;;4.97;2.03;;;;;;;;;;4929148;29;20040;-80
2021/08/02 11:17:52;;;;;;;5.95;2.20;;;;;;;;;;4928992;29;20779;-79
2021/08/02 11:20:37;;;;;;;3.55;2.00;;;;;;;;;;4926748;29;20070;-80
2021/08/02 11:23:32;;;;;;;5.07;1.83;;;;;;;;;;4923735;29;20059;-79
2021/08/02 11:26:17;;;;;;;3.22;1.55;;;;;;;;;;4927799;29;20035;-79
2021/08/02 11:29:02;;;;;;;1.90;1.50;;;;;;;;;;4930083;29;20036;-79
2021/08/02 11:31:59;;;;;;;1.95;1.50;;;;;;;;;;4928175;29;20111;-80
2021/08/02 11:34:49;;;;;;;4.05;1.80;;;;;;;;;;4928832;29;20114;-79
2021/08/02 11:37:35;;;;;;;6.10;1.75;;;;;;;;;;4930306;29;20175;-80
2021/08/02 11:40:20;;;;;;;4.65;1.65;;;;;;;;;;4930123;29;20566;-80
2021/08/02 11:43:06;;;;;;;2.50;1.55;;;;;;;;;;4929785;29;20043;-80
2021/08/02 11:45:51;;;;;;;2.00;1.50;;;;;;;;;;4923117;29;20028;-80
2021/08/02 11:48:37;;;;;;;3.33;1.80;;;;;;;;;;4924695;29;20363;-78
2021/08/02 11:51:22;;;;;;;3.65;1.55;;;;;;;;;;4932058;29;20035;-80
2021/08/02 11:54:17;;;;;;;5.45;2.05;;;;;;;;;;4944086;28;20446;-79
2021/08/02 11:57:02;;;;;;;5.82;2.00;;;;;;;;;;4928416;29;20509;-79
2021/08/02 11:59:54;;;;;;;3.38;1.80;;;;;;;;;;4930503;29;20024;-80
2021/08/02 12:02:40;;;;;;;5.68;2.25;;;;;;;;;;4929630;29;20024;-80
2021/08/02 12:05:29;;;;;;;3.88;2.50;;;;;;;;;;4931139;29;20036;-80
2021/08/02 12:08:17;;;;;;;4.43;2.42;;;;;;;;;;4935429;29;20431;-80
2021/08/02 12:11:03;;;;;;;4.88;2.28;;;;;;;;;;4927253;29;20501;-80
2021/08/02 12:13:50;;;;;;;4.85;2.28;;;;;;;;;;4924796;29;20020;-83
2021/08/02 12:16:38;;;;;;;7.57;3.28;;;;;;;;;;4935687;29;20099;-82
2021/08/02 12:19:23;;;;;;;6.93;3.80;;;;;;;;;;4927047;29;20039;-79
2021/08/02 12:22:08;;;;;;;6.45;4.65;;;;;;;;;;4920959;29;20282;-80
2021/08/02 12:24:54;;;;;;;3.13;1.83;;;;;;;;;;4931287;29;20371;-79
2021/08/02 12:27:40;;;;;;;4.38;2.08;;;;;;;;;;4926898;29;20035;-84
2021/08/02 12:30:26;;;;;;;2.80;1.48;;;;;;;;;;4934507;29;20035;-82
2021/08/02 12:33:14;;;;;;;3.50;2.25;;;;;;;;;;4928445;29;20106;-83
2021/08/02 12:36:00;;;;;;;5.45;1.50;;;;;;;;;;4933468;29;20033;-82
2021/08/02 12:38:46;;;;;;;3.20;1.48;;;;;;;;;;4932916;29;20509;-83
2021/08/02 12:41:38;;;;;;;5.03;1.70;;;;;;;;;;4933346;29;20039;-81
2021/08/02 12:44:23;;;;;;;4.70;2.10;;;;;;;;;;4932082;29;20024;-81
2021/08/02 12:47:08;;;;;;;3.67;1.40;;;;;;;;;;4930807;29;20039;-82
2021/08/02 12:49:57;;;;;;;2.95;2.05;;;;;;;;;;4930294;29;20095;-82
2021/08/02 12:52:44;;;;;;;6.97;3.77;;;;;;;;;;4932815;29;20382;-82
2021/08/02 12:55:29;;;;;;;4.38;1.92;;;;;;;;;;4933921;29;20135;-83
2021/08/02 12:58:15;;;;;;;3.45;1.80;;;;;;;;;;4933816;29;20030;-81
2021/08/02 13:01:00;;;;;;;6.88;2.08;;;;;;;;;;4939621;29;20031;-81
2021/08/02 13:03:45;;;;;;;1.95;1.50;;;;;;;;;;4926267;29;20439;-82
2021/08/02 13:06:30;;;;;;;2.88;1.70;;;;;;;;;;4933697;29;20559;-83
2021/08/02 13:09:15;;;;;;;2.83;1.83;;;;;;;;;;4935741;29;20090;-82
2021/08/02 13:12:01;;;;;;;2.40;1.77;;;;;;;;;;4930559;29;20031;-82
2021/08/02 13:14:47;;;;;;;4.07;1.77;;;;;;;;;;4934426;29;20106;-82
2021/08/02 13:17:32;;;;;;;3.90;1.80;;;;;;;;;;4936030;29;20030;-82
2021/08/02 13:20:17;;;;;;;1.95;1.42;;;;;;;;;;4929339;29;20038;-82
2021/08/02 13:23:26;;;;;;;4.63;1.85;;;;;;;;;;4935838;29;20078;-82
2021/08/02 13:29:14;;;;;;;5.25;2.10;;;;;;;;;;4944723;28;20407;-82
2021/08/02 13:32:00;;;;;;;4.28;1.67;;;;;;;;;;4931394;29;20028;-81
2021/08/02 13:34:45;;;;;;;3.40;1.67;;;;;;;;;;4937609;29;20496;-81
2021/08/02 13:37:31;;;;;;;4.60;1.80;;;;;;;;;;4929729;29;20114;-81
2021/08/02 13:40:16;;;;;;;3.63;1.95;;;;;;;;;;4935014;29;20028;-81
2021/08/02 13:43:01;;;;;;;8.30;4.45;;;;;;;;;;4932159;29;20031;-81
2021/08/02 13:45:46;;;;;;;6.38;4.03;;;;;;;;;;4944277;28;20019;-81
2021/08/02 13:48:32;;;;;;;3.03;1.70;;;;;;;;;;4934887;29;20082;-82
2021/08/02 13:51:19;;;;;;;2.22;2.00;;;;;;;;;;4940813;29;20431;-83
2021/08/02 13:54:04;;;;;;;5.72;2.38;;;;;;;;;;4931277;29;20032;-83
2021/08/02 13:56:50;;;;;;;4.35;2.10;;;;;;;;;;4926616;29;20107;-83
2021/08/02 13:59:35;;;;;;;4.13;2.63;;;;;;;;;;4935279;29;20031;-83
2021/08/02 14:02:20;;;;;;;3.10;1.50;;;;;;;;;;4939686;29;20490;-84
2021/08/02 14:05:06;;;;;;;4.28;1.90;;;;;;;;;;4928564;29;20086;-83
2021/08/02 14:07:52;;;;;;;5.97;1.83;;;;;;;;;;4929949;29;20073;-84
2021/08/02 14:10:37;;;;;;;5.85;2.03;;;;;;;;;;4932642;29;20836;-82
2021/08/02 14:13:23;;;;;;;4.97;1.90;;;;;;;;;;4930841;29;20020;-83
2021/08/02 14:16:13;;;;;;;3.45;1.90;;;;;;;;;;4925192;29;20032;-84
2021/08/02 14:19:14;;;;;;;3.08;2.10;;;;;;;;;;4928279;29;20032;-83
2021/08/02 14:22:00;;;;;;;4.07;2.63;;;;;;;;;;4929142;29;20035;-83
2021/08/02 14:24:46;;;;;;;3.15;2.35;;;;;;;;;;4928797;29;20019;-83
2021/08/02 14:27:32;;;;;;;5.28;2.03;;;;;;;;;;4925354;29;20032;-82
2021/08/02 14:30:17;;;;;;;6.72;1.92;;;;;;;;;;4924161;29;20062;-85
2021/08/02 14:33:03;;;;;;;4.60;1.75;;;;;;;;;;4932198;29;20110;-84
2021/08/02 14:35:50;;;;;;;3.00;2.10;;;;;;;;;;4928000;29;20011;-83
2021/08/02 14:38:38;;;;;;;19.15;13.93;;;;;;;;;;4918199;29;20039;-83
2021/08/02 14:41:26;;;;;;;11.70;8.18;;;;;;;;;;4935557;29;20023;-84
2021/08/02 14:44:12;;;;;;;3.05;1.95;;;;;;;;;;4935086;29;20043;-83
2021/08/02 14:46:57;;;;;;;3.30;1.52;;;;;;;;;;4932157;29;20031;-82
2021/08/02 14:49:49;;;;;;;4.47;2.15;;;;;;;;;;4930644;29;20363;-83
2021/08/02 14:52:35;;;;;;;2.97;1.90;;;;;;;;;;4924242;29;20023;-83
2021/08/02 14:55:21;;;;;;;5.85;2.08;;;;;;;;;;4931204;29;20052;-83
2021/08/02 14:58:06;;;;;;;3.78;1.92;;;;;;;;;;4927802;29;20353;-83
2021/08/02 15:00:52;;;;;;;4.30;2.08;;;;;;;;;;4932311;29;20030;-83
2021/08/02 15:03:38;;;;;;;5.18;2.10;;;;;;;;;;4934184;29;20061;-84
2021/08/02 15:06:28;;;;;;;5.63;2.22;;;;;;;;;;4935841;29;20019;-83
2021/08/02 15:09:13;;;;;;;4.50;2.33;;;;;;;;;;4941378;29;20070;-84
2021/08/02 15:11:58;;;;;;;5.53;2.70;;;;;;;;;;4944874;29;20503;-83
2021/08/02 15:14:43;;;;;;;4.22;2.63;;;;;;;;;;4931473;29;20128;-83
2021/08/02 15:17:32;;;;;;;3.72;2.20;;;;;;;;;;4929876;29;20023;-83
2021/08/02 15:20:22;;;;;;;3.58;2.30;;;;;;;;;;4926071;29;20106;-83
2021/08/02 15:23:14;;;;;;;3.97;2.58;;;;;;;;;;4938150;28;20039;-83
2021/08/02 15:26:05;;;;;;;5.78;2.22;;;;;;;;;;4940789;28;20512;-83
2021/08/02 15:28:52;;;;;;;5.45;2.40;;;;;;;;;;4933534;29;20090;-83
2021/08/02 15:31:41;;;;;;;4.43;2.05;;;;;;;;;;4920781;29;20074;-81
2021/08/02 15:34:26;;;;;;;;;;;;;;;;;;4926440;29;20019;-81
2021/08/02 15:37:14;;;;;;;3.72;2.30;;;;;;;;;;4931997;29;19988;-80
2021/08/02 15:39:59;;;;;;;4.65;2.15;;;;;;;;;;4928923;29;20062;-82
2021/08/02 15:42:45;;;;;;;3.88;2.22;;;;;;;;;;4929281;29;20026;-82
2021/08/02 15:45:31;;;;;;;3.08;1.80;;;;;;;;;;4930569;29;20026;-83
2021/08/02 15:48:16;;;;;;;5.15;2.22;;;;;;;;;;4947740;28;20046;-82
2021/08/02 15:51:03;;;;;;;3.50;2.10;;;;;;;;;;4930224;29;20035;-82
2021/08/02 15:53:56;;;;;;;8.82;2.28;;;;;;;;;;4932069;29;20030;-82
2021/08/02 15:56:42;;;;;;;2.90;1.90;;;;;;;;;;4930907;29;20434;-84
2021/08/02 15:59:29;;;;;;;3.58;1.83;;;;;;;;;;4931965;29;20027;-84
2021/08/02 16:02:30;;;;;;;13.82;11.73;;;;;;;;;;4935028;29;20030;-84
2021/08/02 16:05:17;;;;;;;15.75;10.43;;;;;;;;;;4927450;29;20115;-84
2021/08/02 16:08:04;;;;;;;4.50;2.15;;;;;;;;;;4936133;29;20034;-83
2021/08/02 16:10:53;;;;;;;5.55;1.80;;;;;;;;;;4939094;28;20031;-84
2021/08/02 16:13:41;;;;;;;2.30;1.42;;;;;;;;;;4927631;29;20024;-83
2021/08/02 16:16:31;;;;;;;3.22;1.80;;;;;;;;;;4943085;28;20027;-84
2021/08/02 16:19:17;;;;;;;2.10;1.33;;;;;;;;;;4933401;29;20038;-84
2021/08/02 16:22:03;;;;;;;2.83;1.27;;;;;;;;;;4950057;29;20473;-84
2021/08/02 16:24:48;;;;;;;1.45;1.10;;;;;;;;;;4936579;29;20077;-83
2021/08/02 16:27:34;;;;;;;3.20;1.60;;;;;;;;;;4936721;29;20031;-81
2021/08/02 16:30:20;;;;;;;3.03;1.40;;;;;;;;;;4933292;29;20609;-82
2021/08/02 16:33:05;;;;;;;2.45;1.40;;;;;;;;;;4932029;29;20537;-82
2021/08/02 16:35:50;;;;;;;3.10;1.38;;;;;;;;;;4931440;29;20417;-82
2021/08/02 16:38:37;;;;;;;2.67;1.50;;;;;;;;;;4908456;29;20016;-81
2021/08/02 16:41:22;;;;;;;2.00;1.35;;;;;;;;;;4926638;29;20035;-80
2021/08/02 16:44:11;;;;;;;3.47;1.80;;;;;;;;;;4926046;29;20032;-82